createdAt,value
2018-01-12T00:02:11.588Z,92.70
2018-01-12T00:04:39.886Z,92.70
2018-01-12T00:07:08.176Z,92.70
2018-01-12T00:09:36.501Z,92.70
2018-01-12T00:12:04.800Z,92.60
2018-01-12T00:14:33.120Z,92.70
2018-01-12T00:17:01.404Z,92.70
2018-01-12T00:19:29.728Z,92.70
2018-01-12T00:21:58.028Z,92.70
2018-01-12T00:24:26.353Z,92.70
2018-01-12T00:26:54.644Z,92.60
2018-01-12T00:29:22.970Z,92.70
2018-01-12T00:31:51.267Z,92.70
2018-01-12T00:34:19.598Z,92.70
2018-01-12T00:36:47.904Z,92.70
2018-01-12T00:39:16.240Z,92.70
2018-01-12T00:41:44.540Z,92.70
2018-01-12T00:44:12.859Z,92.60
2018-01-12T00:46:41.152Z,92.50
2018-01-12T00:49:09.475Z,92.50
2018-01-12T00:51:37.005Z,92.50
2018-01-12T00:54:05.327Z,92.60
2018-01-12T00:56:33.624Z,92.50
2018-01-12T00:59:01.948Z,92.50
2018-01-12T01:01:30.249Z,92.50
2018-01-12T01:03:58.573Z,92.50
2018-01-12T01:06:26.864Z,92.40
2018-01-12T01:08:55.187Z,92.40
2018-01-12T01:11:23.480Z,92.40
2018-01-12T01:13:51.803Z,92.30
2018-01-12T01:16:20.100Z,92.40
2018-01-12T01:18:48.419Z,92.40
2018-01-12T01:21:16.712Z,92.40
2018-01-12T01:23:45.038Z,92.40
2018-01-12T01:26:13.332Z,92.40
2018-01-12T01:28:41.652Z,92.40
2018-01-12T01:31:09.944Z,92.40
2018-01-12T01:33:38.265Z,92.30
2018-01-12T01:36:06.560Z,92.40
2018-01-12T01:38:34.885Z,92.50
2018-01-12T01:41:03.175Z,92.50
2018-01-12T01:43:31.498Z,92.40
2018-01-12T01:45:59.797Z,92.30
2018-01-12T01:48:39.864Z,92.30
2018-01-12T01:51:08.155Z,92.30
2018-01-12T01:53:36.481Z,92.30
2018-01-12T01:56:04.770Z,92.20
2018-01-12T01:58:33.097Z,92.20
2018-01-12T02:01:01.398Z,92.20
2018-01-12T02:03:29.723Z,92.20
2018-01-12T02:05:58.020Z,92.20
2018-01-12T02:08:26.340Z,92.20
2018-01-12T02:10:53.876Z,92.20
2018-01-12T02:13:22.168Z,92.20
2018-01-12T02:15:50.492Z,92.20
2018-01-12T02:18:18.785Z,92.10
2018-01-12T02:20:47.108Z,92.00
2018-01-12T02:23:15.408Z,92.00
2018-01-12T02:25:43.728Z,92.00
2018-01-12T02:28:12.016Z,92.00
2018-01-12T02:30:40.336Z,92.00
2018-01-12T02:33:08.632Z,91.90
2018-01-12T02:35:36.958Z,91.90
2018-01-12T02:38:05.259Z,91.90
2018-01-12T02:40:33.581Z,91.90
2018-01-12T02:43:01.105Z,91.90
2018-01-12T02:45:29.433Z,91.90
2018-01-12T02:47:57.732Z,91.90
2018-01-12T02:50:26.078Z,91.90
2018-01-12T02:52:54.377Z,91.80
2018-01-12T02:55:22.707Z,91.80
2018-01-12T02:57:51.021Z,91.80
2018-01-12T03:00:19.349Z,91.80
2018-01-12T03:02:47.643Z,91.80
2018-01-12T03:05:15.964Z,91.90
2018-01-12T03:07:44.260Z,91.80
2018-01-12T03:10:12.592Z,91.90
2018-01-12T03:12:40.888Z,91.80
2018-01-12T03:15:09.213Z,91.90
2018-01-12T03:17:37.503Z,91.80
2018-01-12T03:20:05.828Z,91.80
2018-01-12T03:22:34.123Z,91.70
2018-01-12T03:25:02.447Z,91.70
2018-01-12T03:27:30.744Z,91.70
2018-01-12T03:29:59.072Z,91.70
2018-01-12T03:32:27.368Z,91.70
2018-01-12T03:34:55.689Z,91.70
2018-01-12T03:37:23.985Z,91.70
2018-01-12T03:39:52.317Z,91.70
2018-01-12T03:42:20.609Z,91.80
2018-01-12T03:44:48.168Z,91.80
2018-01-12T03:47:16.464Z,91.70
2018-01-12T03:49:44.784Z,91.70
2018-01-12T03:52:13.080Z,91.70
2018-01-12T03:54:41.399Z,91.70
2018-01-12T03:57:09.701Z,91.70
2018-01-12T03:59:38.020Z,91.70
2018-01-12T04:02:06.312Z,91.70
2018-01-12T04:04:34.630Z,91.60
2018-01-12T04:07:02.937Z,91.70
2018-01-12T04:09:31.261Z,91.70
2018-01-12T04:11:59.564Z,91.80
2018-01-12T04:14:27.857Z,92.00
2018-01-12T04:16:56.179Z,91.70
2018-01-12T04:19:24.479Z,91.70
2018-01-12T04:21:52.795Z,91.80
2018-01-12T04:24:21.101Z,91.80
2018-01-12T04:26:49.420Z,91.80
2018-01-12T04:29:17.716Z,91.80
2018-01-12T04:31:46.037Z,91.70
2018-01-12T04:34:14.328Z,91.70
2018-01-12T04:36:42.653Z,91.70
2018-01-12T04:39:10.951Z,91.70
2018-01-12T04:41:39.268Z,91.70
2018-01-12T04:44:07.564Z,91.80
2018-01-12T04:46:35.884Z,91.80
2018-01-12T04:49:04.180Z,91.80
2018-01-12T04:51:32.501Z,91.80
2018-01-12T04:54:00.797Z,91.90
2018-01-12T04:56:29.129Z,91.90
2018-01-12T04:58:57.434Z,91.90
2018-01-12T05:01:25.761Z,91.90
2018-01-12T05:03:54.100Z,92.30
2018-01-12T05:06:22.413Z,91.90
2018-01-12T05:08:50.717Z,91.90
2018-01-12T05:11:19.045Z,92.00
2018-01-12T05:13:47.350Z,92.00
2018-01-12T05:16:15.687Z,92.10
2018-01-12T05:18:43.990Z,92.10
2018-01-12T05:21:12.325Z,92.10
2018-01-12T05:23:40.632Z,92.10
2018-01-12T05:26:08.953Z,92.40
2018-01-12T05:28:37.249Z,92.20
2018-01-12T05:31:05.581Z,92.20
2018-01-12T05:33:33.104Z,92.20
2018-01-12T05:36:01.433Z,92.20
2018-01-12T05:38:29.732Z,92.20
2018-01-12T05:40:58.062Z,92.20
2018-01-12T05:43:26.365Z,92.20
2018-01-12T05:45:54.693Z,92.30
2018-01-12T05:48:22.992Z,92.30
2018-01-12T05:50:51.312Z,92.20
2018-01-12T05:53:19.608Z,92.30
2018-01-12T05:55:47.928Z,92.30
2018-01-12T05:58:16.227Z,92.30
2018-01-12T06:00:56.313Z,92.70
2018-01-12T06:03:36.328Z,92.30
2018-01-12T06:06:16.608Z,92.30
2018-01-12T06:08:44.908Z,92.40
2018-01-12T06:11:13.232Z,92.40
2018-01-12T06:13:41.528Z,92.40
2018-01-12T06:16:09.080Z,92.40
2018-01-12T06:18:37.376Z,92.40
2018-01-12T06:21:05.703Z,92.50
2018-01-12T06:23:34.008Z,92.40
2018-01-12T06:26:02.339Z,92.40
2018-01-12T06:28:30.636Z,92.40
2018-01-12T06:30:58.956Z,92.40
2018-01-12T06:33:27.252Z,92.40
2018-01-12T06:35:55.729Z,92.80
2018-01-12T06:38:24.023Z,92.40
2018-01-12T06:40:52.316Z,92.40
2018-01-12T06:43:20.637Z,92.30
2018-01-12T06:45:48.937Z,92.20
2018-01-12T06:48:17.265Z,92.10
2018-01-12T06:50:45.558Z,92.00
2018-01-12T06:53:13.879Z,92.00
2018-01-12T06:55:41.414Z,92.00
2018-01-12T06:58:09.735Z,91.90
2018-01-12T07:00:38.036Z,91.80
2018-01-12T07:03:06.356Z,91.80
2018-01-12T07:05:34.648Z,91.70
2018-01-12T07:08:02.966Z,91.70
2018-01-12T07:10:31.267Z,91.60
2018-01-12T07:12:59.593Z,91.60
2018-01-12T07:15:27.893Z,91.60
2018-01-12T07:17:56.216Z,91.40
2018-01-12T07:20:36.262Z,91.30
2018-01-12T07:23:16.576Z,91.40
2018-01-12T07:25:44.877Z,91.30
2018-01-12T07:28:13.201Z,91.30
2018-01-12T07:30:41.505Z,91.40
2018-01-12T07:33:09.824Z,91.50
2018-01-12T07:35:38.138Z,91.50
2018-01-12T07:38:06.464Z,91.50
2018-01-12T07:40:34.766Z,91.50
2018-01-12T07:43:03.089Z,91.60
2018-01-12T07:45:31.388Z,91.70
2018-01-12T07:47:59.705Z,91.70
2018-01-12T07:50:27.996Z,91.70
2018-01-12T07:53:01.990Z,91.70
2018-01-12T07:55:30.298Z,91.70
2018-01-12T07:57:58.615Z,91.70
2018-01-12T08:00:32.542Z,91.70
2018-01-12T08:03:03.860Z,91.70
2018-01-12T08:05:32.159Z,91.70
2018-01-12T08:08:00.784Z,91.70
2018-01-12T08:10:29.076Z,91.60
2018-01-12T08:12:56.623Z,91.60
2018-01-12T08:15:24.923Z,92.00
2018-01-12T08:17:53.236Z,91.60
2018-01-12T08:20:21.528Z,91.60
2018-01-12T08:22:49.847Z,91.60
2018-01-12T08:25:18.148Z,91.60
2018-01-12T08:27:46.464Z,91.60
2018-01-12T08:30:14.755Z,91.60
2018-01-12T08:32:43.072Z,91.60
2018-01-12T08:35:11.373Z,91.60
2018-01-12T08:37:39.688Z,91.60
2018-01-12T08:40:07.990Z,91.60
2018-01-12T08:42:36.312Z,91.60
2018-01-12T08:45:04.612Z,91.60
2018-01-12T08:47:32.927Z,91.50
2018-01-12T08:50:01.224Z,91.50
2018-01-12T08:52:29.553Z,91.50
2018-01-12T08:54:57.848Z,91.40
2018-01-12T08:57:26.168Z,91.40
2018-01-12T08:59:54.505Z,91.40
2018-01-12T09:02:22.804Z,91.40
2018-01-12T09:04:51.096Z,91.30
2018-01-12T09:07:19.394Z,91.20
2018-01-12T09:09:47.716Z,91.20
2018-01-12T09:12:16.008Z,91.20
2018-01-12T09:14:53.469Z,91.00
2018-01-12T09:17:30.566Z,90.70
2018-01-12T09:20:10.608Z,90.70
2018-01-12T09:22:48.299Z,90.90
2018-01-12T09:25:23.457Z,90.60
2018-01-12T09:27:51.007Z,90.60
2018-01-12T09:30:19.301Z,90.30
2018-01-12T09:32:49.212Z,90.20
2018-01-12T09:35:16.739Z,90.20
2018-01-12T09:37:45.059Z,90.00
2018-01-12T09:40:28.102Z,89.70
2018-01-12T09:42:56.419Z,89.70
2018-01-12T09:45:24.713Z,89.30
2018-01-12T09:48:04.834Z,89.20
2018-01-12T09:50:33.139Z,89.10
2018-01-12T09:53:01.455Z,88.50
2018-01-12T09:55:29.752Z,88.20
2018-01-12T09:57:58.073Z,88.40
2018-01-12T10:00:44.955Z,87.40
2018-01-12T10:03:13.279Z,86.90
2018-01-12T10:05:41.577Z,85.90
2018-01-12T10:08:16.388Z,85.00
2018-01-12T10:10:44.683Z,83.90
2018-01-12T10:13:12.997Z,83.20
2018-01-12T10:15:41.299Z,82.90
2018-01-12T10:18:28.376Z,82.90
2018-01-12T10:20:56.668Z,82.90
2018-01-12T10:23:25.004Z,82.80
2018-01-12T10:25:53.309Z,82.80
2018-01-12T10:28:21.636Z,83.00
2018-01-12T10:31:04.048Z,82.90
2018-01-12T10:33:47.254Z,82.70
2018-01-12T10:36:21.364Z,83.30
2018-01-12T10:38:57.544Z,82.30
2018-01-12T10:41:51.444Z,81.90
2018-01-12T10:44:19.760Z,82.20
2018-01-12T10:46:48.061Z,82.60
2018-01-12T10:49:27.235Z,82.50
2018-01-12T10:52:10.089Z,82.30
2018-01-12T10:54:38.415Z,82.10
2018-01-12T10:57:06.716Z,81.40
2018-01-12T10:59:35.045Z,80.40
2018-01-12T11:02:03.336Z,81.20
2018-01-12T11:04:31.652Z,81.50
2018-01-12T11:06:59.939Z,82.10
2018-01-12T11:09:28.265Z,82.40
2018-01-12T11:11:56.564Z,82.70
2018-01-12T11:14:24.876Z,82.80
2018-01-12T11:16:53.177Z,83.00
2018-01-12T11:19:21.496Z,83.30
2018-01-12T11:21:49.033Z,83.30
2018-01-12T11:24:17.356Z,83.00
2018-01-12T11:26:45.656Z,82.70
2018-01-12T11:29:13.985Z,83.10
2018-01-12T11:31:42.292Z,82.10
2018-01-12T11:34:10.611Z,81.50
2018-01-12T11:36:38.911Z,81.30
2018-01-12T11:39:07.239Z,81.30
2018-01-12T11:41:35.537Z,80.70
2018-01-12T11:44:03.864Z,80.00
2018-01-12T11:46:32.163Z,79.20
2018-01-12T11:49:00.492Z,78.20
2018-01-12T11:51:28.800Z,77.90
2018-01-12T11:53:57.116Z,77.80
2018-01-12T11:56:25.432Z,77.40
2018-01-12T11:58:53.723Z,77.40
2018-01-12T12:01:22.047Z,77.20
2018-01-12T12:03:50.347Z,76.70
2018-01-12T12:06:18.668Z,76.60
2018-01-12T12:08:46.963Z,76.00
2018-01-12T12:11:15.288Z,76.40
2018-01-12T12:13:43.579Z,76.00
2018-01-12T12:16:11.909Z,75.40
2018-01-12T12:18:40.207Z,75.70
2018-01-12T12:21:07.763Z,75.80
2018-01-12T12:23:36.066Z,76.10
2018-01-12T12:26:04.389Z,76.30
2018-01-12T12:28:32.688Z,75.90
2018-01-12T12:31:01.000Z,75.90
2018-01-12T12:33:29.296Z,76.00
2018-01-12T12:35:57.627Z,76.20
2018-01-12T12:38:25.929Z,75.60
2018-01-12T12:40:54.299Z,74.60
2018-01-12T12:43:22.576Z,74.40
2018-01-12T12:45:50.905Z,74.20
2018-01-12T12:48:19.204Z,74.20
2018-01-12T12:50:47.524Z,74.40
2018-01-12T12:53:15.824Z,74.00
2018-01-12T12:55:44.141Z,73.80
2018-01-12T12:58:12.451Z,74.10
2018-01-12T13:00:40.779Z,74.20
2018-01-12T13:03:08.309Z,74.20
2018-01-12T13:05:36.632Z,75.10
2018-01-12T13:08:04.929Z,74.90
2018-01-12T13:10:33.253Z,75.00
2018-01-12T13:13:01.556Z,75.50
2018-01-12T13:15:29.885Z,75.90
2018-01-12T13:17:58.196Z,75.60
2018-01-12T13:20:26.520Z,75.90
2018-01-12T13:22:54.812Z,76.30
2018-01-12T13:25:23.141Z,76.20
2018-01-12T13:27:51.435Z,76.60
2018-01-12T13:30:19.757Z,77.20
2018-01-12T13:32:48.057Z,77.30
2018-01-12T13:35:16.387Z,77.50
2018-01-12T13:37:44.696Z,77.60
2018-01-12T13:40:13.028Z,77.50
2018-01-12T13:42:41.316Z,77.80
2018-01-12T13:45:09.632Z,78.20
2018-01-12T13:47:37.941Z,78.80
2018-01-12T13:50:06.268Z,78.80
2018-01-12T13:52:34.567Z,78.80
2018-01-12T13:55:02.869Z,79.10
2018-01-12T13:57:31.191Z,79.80
2018-01-12T13:59:59.496Z,79.40
2018-01-12T14:02:27.817Z,79.60
2018-01-12T14:04:56.117Z,79.70
2018-01-12T14:07:24.476Z,79.70
2018-01-12T14:09:52.758Z,80.00
2018-01-12T14:12:21.079Z,80.40
2018-01-12T14:14:49.388Z,80.60
2018-01-12T14:17:16.947Z,80.60
2018-01-12T14:19:45.253Z,80.90
2018-01-12T14:22:13.585Z,81.00
2018-01-12T14:24:41.888Z,80.90
2018-01-12T14:27:10.212Z,81.50
2018-01-12T14:29:38.512Z,81.00
2018-01-12T14:32:06.835Z,81.20
2018-01-12T14:34:35.132Z,81.50
2018-01-12T14:37:03.448Z,82.20
2018-01-12T14:39:31.740Z,82.50
2018-01-12T14:42:00.057Z,82.70
2018-01-12T14:44:28.362Z,82.70
2018-01-12T14:46:56.684Z,82.80
2018-01-12T14:49:24.988Z,83.30
2018-01-12T14:51:53.313Z,83.30
2018-01-12T14:54:21.616Z,83.40
2018-01-12T14:56:49.948Z,83.50
2018-01-12T14:59:18.251Z,83.70
2018-01-12T15:01:46.568Z,83.40
2018-01-12T15:04:14.906Z,83.90
2018-01-12T15:06:43.204Z,84.00
2018-01-12T15:09:11.505Z,84.40
2018-01-12T15:11:39.823Z,84.60
2018-01-12T15:14:08.129Z,84.70
2018-01-12T15:16:35.688Z,84.70
2018-01-12T15:19:03.988Z,84.90
2018-01-12T15:21:32.318Z,85.10
2018-01-12T15:24:00.621Z,85.30
2018-01-12T15:26:28.942Z,85.60
2018-01-12T15:28:57.249Z,85.60
2018-01-12T15:31:25.572Z,85.60
2018-01-12T15:33:53.868Z,85.80
2018-01-12T15:36:22.185Z,85.90
2018-01-12T15:38:50.497Z,86.00
2018-01-12T15:41:18.818Z,85.80
2018-01-12T15:43:47.109Z,86.20
2018-01-12T15:46:15.429Z,86.40
2018-01-12T15:48:43.719Z,86.60
2018-01-12T15:51:12.052Z,86.80
2018-01-12T15:53:40.348Z,86.80
2018-01-12T15:56:08.640Z,87.00
2018-01-12T15:58:36.964Z,87.00
2018-01-12T16:01:05.262Z,87.00
2018-01-12T16:03:33.580Z,87.30
2018-01-12T16:06:01.108Z,87.20
2018-01-12T16:08:29.440Z,87.50
2018-01-12T16:10:57.740Z,87.60
2018-01-12T16:13:26.056Z,87.70
2018-01-12T16:15:54.356Z,87.80
2018-01-12T16:18:22.682Z,87.80
2018-01-12T16:20:50.977Z,87.80
2018-01-12T16:23:19.295Z,87.80
2018-01-12T16:25:47.604Z,87.70
2018-01-12T16:28:15.925Z,87.80
2018-01-12T16:30:44.217Z,87.90
2018-01-12T16:33:12.548Z,88.20
2018-01-12T16:35:40.086Z,88.20
2018-01-12T16:38:08.404Z,88.30
2018-01-12T16:40:36.704Z,88.20
2018-01-12T16:43:04.264Z,88.20
2018-01-12T16:45:32.551Z,88.70
2018-01-12T16:48:00.896Z,88.80
2018-01-12T16:50:29.199Z,88.80
2018-01-12T16:52:57.521Z,88.90
2018-01-12T16:55:25.826Z,89.10
2018-01-12T16:57:54.143Z,89.10
2018-01-12T17:00:22.436Z,89.20
2018-01-12T17:02:49.997Z,89.30
2018-01-12T17:05:18.301Z,89.20
2018-01-12T17:07:45.868Z,89.20
2018-01-12T17:10:14.181Z,89.30
2018-01-12T17:12:42.504Z,89.30
2018-01-12T17:15:10.850Z,90.00
2018-01-12T17:17:39.146Z,89.40
2018-01-12T17:20:07.442Z,89.60
2018-01-12T17:22:35.002Z,89.60
2018-01-12T17:25:02.541Z,89.70
2018-01-12T17:27:30.873Z,89.50
2018-01-12T17:29:59.185Z,89.40
2018-01-12T17:32:27.502Z,89.40
2018-01-12T17:34:55.796Z,89.50
2018-01-12T17:37:24.120Z,89.50
2018-01-12T17:39:52.421Z,89.50
2018-01-12T17:42:20.759Z,89.40
2018-01-12T17:44:49.061Z,89.20
2018-01-12T17:47:17.381Z,89.10
2018-01-12T17:49:45.699Z,89.00
2018-01-12T17:52:14.000Z,88.90
2018-01-12T17:54:42.330Z,88.60
2018-01-12T17:57:10.632Z,88.50
2018-01-12T17:59:38.964Z,88.50
2018-01-12T18:02:07.277Z,88.50
2018-01-12T18:04:35.600Z,88.60
2018-01-12T18:07:03.895Z,88.70
2018-01-12T18:09:32.219Z,88.60
2018-01-12T18:12:00.513Z,88.50
2018-01-12T18:14:28.823Z,88.50
2018-01-12T18:16:57.119Z,88.50
2018-01-12T18:19:25.443Z,88.60
2018-01-12T18:21:53.748Z,88.90
2018-01-12T18:24:22.064Z,89.10
2018-01-12T18:26:49.604Z,89.00
2018-01-12T18:29:18.024Z,89.10
2018-01-12T18:31:45.561Z,89.10
2018-01-12T18:34:13.886Z,89.30
2018-01-12T18:36:42.185Z,89.40
2018-01-12T18:39:10.516Z,89.50
2018-01-12T18:41:38.823Z,89.60
2018-01-12T18:44:07.149Z,89.70
2018-01-12T18:46:35.447Z,89.80
2018-01-12T18:49:03.768Z,89.90
2018-01-12T18:51:32.060Z,89.80
2018-01-12T18:53:59.611Z,89.80
2018-01-12T18:56:27.916Z,89.90
2018-01-12T18:58:56.235Z,89.90
2018-01-12T19:01:24.528Z,90.00
2018-01-12T19:03:52.848Z,90.00
2018-01-12T19:06:21.166Z,90.00
2018-01-12T19:08:49.524Z,90.00
2018-01-12T19:11:17.824Z,90.00
2018-01-12T19:13:46.148Z,90.00
2018-01-12T19:16:14.463Z,90.00
2018-01-12T19:18:42.779Z,90.00
2018-01-12T19:21:11.075Z,90.00
2018-01-12T19:23:39.395Z,89.90
2018-01-12T19:26:07.701Z,89.90
2018-01-12T19:28:36.029Z,89.70
2018-01-12T19:31:04.324Z,89.50
2018-01-12T19:33:32.658Z,89.50
2018-01-12T19:36:00.953Z,89.30
2018-01-12T19:38:29.269Z,89.40
2018-01-12T19:40:57.577Z,89.50
2018-01-12T19:43:25.905Z,89.30
2018-01-12T19:45:54.201Z,89.40
2018-01-12T19:48:22.495Z,89.40
2018-01-12T19:50:50.813Z,89.50
2018-01-12T19:53:19.110Z,89.40
2018-01-12T19:55:47.428Z,89.40
2018-01-12T19:58:15.743Z,89.20
2018-01-12T20:00:44.072Z,89.20
2018-01-12T20:03:12.364Z,89.30
2018-01-12T20:05:40.687Z,89.20
2018-01-12T20:08:08.984Z,89.20
2018-01-12T20:10:37.299Z,89.10
2018-01-12T20:13:05.600Z,88.90
2018-01-12T20:15:33.924Z,89.00
2018-01-12T20:18:01.484Z,88.90
2018-01-12T20:20:29.816Z,89.00
2018-01-12T20:22:57.347Z,88.90
2018-01-12T20:25:25.668Z,88.80
2018-01-12T20:27:53.972Z,88.70
2018-01-12T20:30:22.301Z,88.60
2018-01-12T20:32:50.609Z,88.60
2018-01-12T20:35:18.930Z,88.70
2018-01-12T20:37:47.240Z,88.60
2018-01-12T20:40:15.562Z,89.60
2018-01-12T20:42:43.860Z,88.70
2018-01-12T20:45:12.206Z,89.50
2018-01-12T20:47:40.496Z,88.80
2018-01-12T20:50:08.820Z,88.70
2018-01-12T20:52:36.344Z,88.70
2018-01-12T20:55:04.660Z,88.60
2018-01-12T20:57:32.952Z,88.80
2018-01-12T21:00:01.286Z,88.80
2018-01-12T21:02:29.576Z,88.90
2018-01-12T21:04:57.893Z,89.00
2018-01-12T21:07:26.184Z,89.00
2018-01-12T21:09:54.497Z,89.00
2018-01-12T21:12:22.792Z,89.00
2018-01-12T21:14:51.108Z,89.10
2018-01-12T21:17:19.439Z,88.90
2018-01-12T21:19:47.760Z,89.10
2018-01-12T21:22:16.056Z,89.20
2018-01-12T21:24:43.608Z,89.20
2018-01-12T21:27:11.899Z,89.40
2018-01-12T21:29:40.220Z,89.30
2018-01-12T21:32:08.520Z,89.30
2018-01-12T21:34:36.843Z,89.30
2018-01-12T21:37:05.140Z,89.30
2018-01-12T21:39:33.455Z,89.20
2018-01-12T21:42:00.980Z,89.20
2018-01-12T21:44:28.504Z,89.20
2018-01-12T21:46:56.816Z,89.50
2018-01-12T21:49:25.115Z,89.60
2018-01-12T21:51:53.441Z,89.50
2018-01-12T21:54:21.739Z,89.30
2018-01-12T21:56:50.060Z,89.40
2018-01-12T21:59:18.357Z,89.70
2018-01-12T22:01:46.675Z,89.80
2018-01-12T22:04:14.976Z,90.00
2018-01-12T22:06:43.290Z,89.90
2018-01-12T22:09:11.584Z,89.90
2018-01-12T22:11:39.132Z,89.90
2018-01-12T22:14:07.420Z,89.80
2018-01-12T22:16:35.740Z,89.70
2018-01-12T22:19:04.036Z,89.70
2018-01-12T22:21:32.357Z,89.80
2018-01-12T22:24:00.664Z,89.60
2018-01-12T22:26:28.988Z,89.70
2018-01-12T22:28:57.284Z,89.80
2018-01-12T22:31:25.607Z,89.70
2018-01-12T22:33:53.904Z,89.70
2018-01-12T22:36:22.224Z,89.80
2018-01-12T22:38:50.525Z,89.90
2018-01-12T22:41:18.844Z,90.30
2018-01-12T22:43:46.380Z,89.90
2018-01-12T22:46:14.692Z,89.80
2018-01-12T22:48:42.985Z,89.70
2018-01-12T22:51:11.296Z,89.80
2018-01-12T22:53:39.587Z,90.00
2018-01-12T22:56:07.140Z,90.00
2018-01-12T22:58:35.437Z,89.90
2018-01-12T23:01:02.997Z,89.90
2018-01-12T23:03:31.295Z,89.90
2018-01-12T23:05:58.855Z,89.90
2018-01-12T23:08:27.140Z,90.10
2018-01-12T23:10:55.465Z,90.10
2018-01-12T23:13:23.761Z,90.30
2018-01-12T23:15:52.076Z,90.10
2018-01-12T23:18:20.375Z,90.10
2018-01-12T23:20:48.700Z,90.10
2018-01-12T23:23:17.004Z,90.10
2018-01-12T23:25:45.320Z,90.10
2018-01-12T23:28:13.611Z,90.10
2018-01-12T23:30:41.932Z,90.20
2018-01-12T23:33:10.227Z,90.20
2018-01-12T23:35:38.547Z,90.20
2018-01-12T23:38:07.764Z,90.20
2018-01-12T23:40:36.056Z,90.20
2018-01-12T23:43:04.377Z,90.60
2018-01-12T23:45:32.672Z,90.10
2018-01-12T23:48:01.302Z,90.10
2018-01-12T23:50:29.588Z,90.10
2018-01-12T23:52:57.916Z,90.10
2018-01-12T23:55:26.530Z,90.10
2018-01-12T23:57:54.894Z,90.10
